Sausalito, CA

9:25 PM PDT on September 17, 2014 (GMT -0700)
Half Moon Bay | Change Station
CLOSE
Current Station
Airport
Location: Half Moon Bay,
Elevation: 66 ft
Nearby Weather Stations
Active Advisory: Beach Hazard Statement

Elev 66 ft 37.51 °N, 122.50 °W | Updated 10 minutes ago

Overcast
Overcast
66 °F
Feels Like 66 °F
N
14
Wind Variable Wind from South

Today
High -- | Low -- °F
--% Chance of Precip.
Yesterday
High -- | Low -- °F
Precip. -- in
6:53 AM 7:14 PM
Waning Crescent, 30% visible
Pressure 29.79 in
Visibility 7.0 miles
Clouds Overcast 1300 ft
Dew Point 63 °F
Humidity 88%
Rainfall 0.00 in
Snow Depth 0 in , 0 in , 0 in
UV 0 out of 12
Pollen 5.10 out of 12
Air Quality Not available.
Flu Activity Not available.
METAR KHAF 180415Z AUTO 17012KT 7SM OVC013 19/17 A2979 RMK AO2

More Conditions Fewer Conditions

Pressure 29.79 in
Visibility 7.0 miles
Clouds Overcast 1300 ft
Dew Point 63 °F
Humidity 88%
Rainfall 0.00 in
Snow Depth 0 in , 0 in , 0 in
UV 0 out of 12
Pollen 5.10 out of 12
Air Quality Not available.
Flu Activity Not available.
METAR KHAF 180415Z AUTO 17012KT 7SM OVC013 19/17 A2979 RMK AO2

More Conditions Fewer Conditions

10-Day Weather Forecast

Almanac

Astronomy

Sep. 17, 2014 Rise Set
Actual Time 6:53 AM PDT 7:14 PM PDT
Civil Twilight 6:27 AM PDT 7:40 PM PDT
Nautical Twilight 5:56 AM PDT 8:11 PM PDT
Astronomical Twilight 5:25 AM PDT 8:43 PM PDT
Moon 1:02 AM PDT (9/17) 3:24 PM PDT (9/17)
Length of Visible Light 13h 13m
Length of Day
12h 20m
Tomorrow will be 2m 24s shorter.
Waning Crescent, 30% of the Moon is Illuminated
Sep 18
Waning Crescent
Sep 24
New
Oct 1
First Quarter
Oct 8
Full
Oct 15
Last Quarter

Today's Extremes

State Highs State Lows

Community

WunderPhotos

Upload Photos

1,754,292 photos uploaded!

Nearby

Snow Depth

Station Depth Elevation
Hagan's Meadow 0 in 8000 ft
Fallen Leaf 0 in 6300 ft
Heavenly Valley 0 in 8850 ft
Blue Lakes 0 in 8000 ft
Spratt Creek 0 in 6200 ft

Earthquake Activity

City Distance Mag. Time & Date
Cobb, California 64 miles 2.7 1:23 PM PDT
2014-09-16
Minimum magnitude displayed is 2.5.

Coastal Water Temperatures

Place Temperature
San Francisco, CA 64.9 °F
Richmond, CA 68.0 °F
Port Chicago, CA 70.0 °F

Nearby Weather Stations